sensor_id;sensor_type;location;lat;lon;timestamp;pressure;altitude;pressure_sealevel;temperature;humidity
62031;BME280;62035;52.094;5.112;2022-08-06T00:00:12;102655.50;;;16.00;100.00
62031;BME280;62035;52.094;5.112;2022-08-06T00:02:40;102655.38;;;15.92;100.00
62031;BME280;62035;52.094;5.112;2022-08-06T00:05:09;102649.84;;;16.04;100.00
62031;BME280;62035;52.094;5.112;2022-08-06T00:07:39;102659.88;;;15.92;100.00
62031;BME280;62035;52.094;5.112;2022-08-06T00:10:07;102658.63;;;15.96;100.00
62031;BME280;62035;52.094;5.112;2022-08-06T00:12:35;102669.63;;;15.83;100.00
62031;BME280;62035;52.094;5.112;2022-08-06T00:15:04;102671.19;;;15.86;100.00
62031;BME280;62035;52.094;5.112;2022-08-06T00:17:33;102667.50;;;15.87;100.00
62031;BME280;62035;52.094;5.112;2022-08-06T00:20:02;102662.44;;;15.93;100.00
62031;BME280;62035;52.094;5.112;2022-08-06T00:22:30;102663.69;;;15.80;100.00
62031;BME280;62035;52.094;5.112;2022-08-06T00:24:59;102670.00;;;15.69;100.00
62031;BME280;62035;52.094;5.112;2022-08-06T00:27:26;102671.28;;;15.65;100.00
62031;BME280;62035;52.094;5.112;2022-08-06T00:29:54;102669.44;;;15.65;100.00
62031;BME280;62035;52.094;5.112;2022-08-06T00:32:22;102678.63;;;15.63;100.00
62031;BME280;62035;52.094;5.112;2022-08-06T00:34:49;102680.16;;;15.65;100.00
62031;BME280;62035;52.094;5.112;2022-08-06T00:37:17;102678.91;;;15.70;100.00
62031;BME280;62035;52.094;5.112;2022-08-06T00:39:45;102681.31;;;15.73;100.00
62031;BME280;62035;52.094;5.112;2022-08-06T00:42:14;102686.97;;;15.70;100.00
62031;BME280;62035;52.094;5.112;2022-08-06T00:44:42;102680.16;;;15.65;100.00
62031;BME280;62035;52.094;5.112;2022-08-06T00:47:10;102686.81;;;15.61;100.00
62031;BME280;62035;52.094;5.112;2022-08-06T00:49:38;102690.69;;;15.48;100.00
62031;BME280;62035;52.094;5.112;2022-08-06T00:52:05;102702.06;;;15.30;100.00
62031;BME280;62035;52.094;5.112;2022-08-06T00:54:33;102703.41;;;15.46;100.00
62031;BME280;62035;52.094;5.112;2022-08-06T00:57:00;102701.88;;;15.53;100.00
62031;BME280;62035;52.094;5.112;2022-08-06T00:59:30;102710.75;;;15.44;100.00
62031;BME280;62035;52.094;5.112;2022-08-06T01:01:57;102706.75;;;15.59;100.00
62031;BME280;62035;52.094;5.112;2022-08-06T01:04:25;102711.91;;;15.51;100.00
62031;BME280;62035;52.094;5.112;2022-08-06T01:06:53;102712.31;;;15.46;100.00
62031;BME280;62035;52.094;5.112;2022-08-06T01:09:20;102717.22;;;15.41;100.00
62031;BME280;62035;52.094;5.112;2022-08-06T01:11:48;102709.44;;;15.38;100.00
62031;BME280;62035;52.094;5.112;2022-08-06T01:14:15;102717.75;;;15.35;100.00
62031;BME280;62035;52.094;5.112;2022-08-06T01:16:47;102717.75;;;15.35;100.00
62031;BME280;62035;52.094;5.112;2022-08-06T01:19:32;102718.25;;;15.50;100.00
62031;BME280;62035;52.094;5.112;2022-08-06T01:22:25;102717.22;;;15.41;100.00
62031;BME280;62035;52.094;5.112;2022-08-06T01:25:23;102718.81;;;15.23;100.00
62031;BME280;62035;52.094;5.112;2022-08-06T01:28:20;102727.56;;;15.15;100.00
62031;BME280;62035;52.094;5.112;2022-08-06T01:30:54;102728.53;;;15.14;100.00
62031;BME280;62035;52.094;5.112;2022-08-06T01:33:31;102731.03;;;15.37;100.00
62031;BME280;62035;52.094;5.112;2022-08-06T01:36:08;102726.34;;;15.29;100.00
62031;BME280;62035;52.094;5.112;2022-08-06T01:38:46;102732.22;;;15.23;100.00
62031;BME280;62035;52.094;5.112;2022-08-06T01:41:18;102732.50;;;15.20;100.00
62031;BME280;62035;52.094;5.112;2022-08-06T01:44:05;102726.34;;;15.29;100.00
62031;BME280;62035;52.094;5.112;2022-08-06T01:46:36;102736.66;;;15.03;100.00
62031;BME280;62035;52.094;5.112;2022-08-06T01:49:07;102739.88;;;15.27;100.00
62031;BME280;62035;52.094;5.112;2022-08-06T01:51:37;102744.94;;;15.21;100.00
62031;BME280;62035;52.094;5.112;2022-08-06T01:54:09;102721.94;;;15.18;100.00
62031;BME280;62035;52.094;5.112;2022-08-06T01:56:40;102743.28;;;15.29;100.00
62031;BME280;62035;52.094;5.112;2022-08-06T01:59:12;102735.69;;;15.34;100.00
62031;BME280;62035;52.094;5.112;2022-08-06T02:01:43;102740.34;;;15.32;100.00
62031;BME280;62035;52.094;5.112;2022-08-06T02:04:17;102741.59;;;15.28;100.00
62031;BME280;62035;52.094;5.112;2022-08-06T02:06:48;102734.38;;;15.29;100.00
62031;BME280;62035;52.094;5.112;2022-08-06T02:09:19;102737.88;;;15.20;100.00
62031;BME280;62035;52.094;5.112;2022-08-06T02:11:50;102736.34;;;15.27;100.00
62031;BME280;62035;52.094;5.112;2022-08-06T02:14:25;102744.66;;;15.24;100.00
62031;BME280;62035;52.094;5.112;2022-08-06T02:16:59;102753.69;;;15.23;100.00
62031;BME280;62035;52.094;5.112;2022-08-06T02:19:29;102754.63;;;15.12;100.00
62031;BME280;62035;52.094;5.112;2022-08-06T02:22:01;102751.09;;;15.12;100.00
62031;BME280;62035;52.094;5.112;2022-08-06T02:24:31;102755.22;;;15.16;100.00
62031;BME280;62035;52.094;5.112;2022-08-06T02:27:02;102746.50;;;15.23;100.00
62031;BME280;62035;52.094;5.112;2022-08-06T02:29:37;102746.03;;;15.39;100.00
62031;BME280;62035;52.094;5.112;2022-08-06T02:32:08;102747.41;;;15.33;100.00
62031;BME280;62035;52.094;5.112;2022-08-06T02:34:37;102750.28;;;15.21;100.00
62031;BME280;62035;52.094;5.112;2022-08-06T02:37:15;102750.38;;;15.10;100.00
62031;BME280;62035;52.094;5.112;2022-08-06T02:39:49;102755.38;;;15.14;100.00
62031;BME280;62035;52.094;5.112;2022-08-06T02:42:27;102753.81;;;15.21;100.00
62031;BME280;62035;52.094;5.112;2022-08-06T02:45:02;102753.91;;;15.10;100.00
62031;BME280;62035;52.094;5.112;2022-08-06T02:47:39;102748.22;;;15.04;100.00
62031;BME280;62035;52.094;5.112;2022-08-06T02:50:13;102748.81;;;15.07;100.00
62031;BME280;62035;52.094;5.112;2022-08-06T02:52:49;102745.63;;;15.13;100.00
62031;BME280;62035;52.094;5.112;2022-08-06T02:55:25;102754.56;;;15.02;100.00
62031;BME280;62035;52.094;5.112;2022-08-06T02:58:04;102750.53;;;15.08;100.00
62031;BME280;62035;52.094;5.112;2022-08-06T03:00:40;102757.78;;;15.17;100.00
62031;BME280;62035;52.094;5.112;2022-08-06T03:03:10;102750.44;;;15.19;100.00
62031;BME280;62035;52.094;5.112;2022-08-06T03:05:43;102751.69;;;15.15;100.00
62031;BME280;62035;52.094;5.112;2022-08-06T03:08:15;102751.84;;;15.23;100.00
62031;BME280;62035;52.094;5.112;2022-08-06T03:10:46;102756.22;;;15.15;100.00
62031;BME280;62035;52.094;5.112;2022-08-06T03:13:16;102754.63;;;15.12;100.00
62031;BME280;62035;52.094;5.112;2022-08-06T03:15:48;102755.63;;;15.11;100.00
62031;BME280;62035;52.094;5.112;2022-08-06T03:18:19;102760.13;;;15.11;100.00
62031;BME280;62035;52.094;5.112;2022-08-06T03:20:50;102756.63;;;15.20;100.00
62031;BME280;62035;52.094;5.112;2022-08-06T03:23:20;102767.53;;;15.18;100.00
62031;BME280;62035;52.094;5.112;2022-08-06T03:25:50;102757.00;;;15.36;100.00
62031;BME280;62035;52.094;5.112;2022-08-06T03:28:19;102762.78;;;15.31;100.00
62031;BME280;62035;52.094;5.112;2022-08-06T03:30:49;102766.13;;;15.24;100.00
62031;BME280;62035;52.094;5.112;2022-08-06T03:33:18;102767.16;;;15.32;100.00
62031;BME280;62035;52.094;5.112;2022-08-06T03:35:48;102772.00;;;15.39;100.00
62031;BME280;62035;52.094;5.112;2022-08-06T03:38:18;102767.09;;;15.44;100.00
62031;BME280;62035;52.094;5.112;2022-08-06T03:40:48;102776.13;;;15.43;100.00
62031;BME280;62035;52.094;5.112;2022-08-06T03:43:17;102775.66;;;15.38;100.00
62031;BME280;62035;52.094;5.112;2022-08-06T03:45:48;102773.25;;;15.34;100.00
62031;BME280;62035;52.094;5.112;2022-08-06T03:48:24;102777.16;;;15.30;100.00
62031;BME280;62035;52.094;5.112;2022-08-06T03:50:55;102780.38;;;15.24;100.00
62031;BME280;62035;52.094;5.112;2022-08-06T03:53:26;102775.84;;;15.46;100.00
62031;BME280;62035;52.094;5.112;2022-08-06T03:55:57;102750.44;;;15.19;100.00
62031;BME280;62035;52.094;5.112;2022-08-06T03:58:29;102776.81;;;15.14;100.00
62031;BME280;62035;52.094;5.112;2022-08-06T04:01:05;102786.56;;;14.94;100.00
62031;BME280;62035;52.094;5.112;2022-08-06T04:03:36;102781.38;;;15.02;100.00
62031;BME280;62035;52.094;5.112;2022-08-06T04:06:05;102784.34;;;14.99;100.00
62031;BME280;62035;52.094;5.112;2022-08-06T04:08:37;102786.16;;;14.99;100.00
62031;BME280;62035;52.094;5.112;2022-08-06T04:11:07;102789.50;;;14.91;100.00
62031;BME280;62035;52.094;5.112;2022-08-06T04:13:37;102787.81;;;15.11;100.00
62031;BME280;62035;52.094;5.112;2022-08-06T04:16:07;102788.41;;;15.15;100.00
62031;BME280;62035;52.094;5.112;2022-08-06T04:18:38;102792.97;;;15.03;100.00
62031;BME280;62035;52.094;5.112;2022-08-06T04:21:10;102798.31;;;15.03;100.00
62031;BME280;62035;52.094;5.112;2022-08-06T04:23:41;102786.28;;;14.97;100.00
62031;BME280;62035;52.094;5.112;2022-08-06T04:26:12;102798.31;;;14.82;100.00
62031;BME280;62035;52.094;5.112;2022-08-06T04:28:45;102794.72;;;14.93;100.00
62031;BME280;62035;52.094;5.112;2022-08-06T04:31:18;102797.72;;;15.20;100.00
62031;BME280;62035;52.094;5.112;2022-08-06T04:33:48;102794.97;;;15.31;100.00
62031;BME280;62035;52.094;5.112;2022-08-06T04:36:18;102793.25;;;15.30;100.00
62031;BME280;62035;52.094;5.112;2022-08-06T04:38:47;102790.00;;;15.27;100.00
62031;BME280;62035;52.094;5.112;2022-08-06T04:41:15;102796.72;;;15.42;100.00
62031;BME280;62035;52.094;5.112;2022-08-06T04:43:43;102792.22;;;15.43;100.00
62031;BME280;62035;52.094;5.112;2022-08-06T04:46:13;102796.34;;;15.47;100.00
62031;BME280;62035;52.094;5.112;2022-08-06T04:48:43;102795.81;;;15.53;100.00
62031;BME280;62035;52.094;5.112;2022-08-06T04:51:11;102806.16;;;15.37;100.00
62031;BME280;62035;52.094;5.112;2022-08-06T04:53:40;102802.75;;;15.34;100.00
62031;BME280;62035;52.094;5.112;2022-08-06T04:56:09;102806.19;;;15.16;100.00
62031;BME280;62035;52.094;5.112;2022-08-06T04:58:36;102817.31;;;15.11;100.00
62031;BME280;62035;52.094;5.112;2022-08-06T05:01:04;102820.44;;;15.16;100.00
62031;BME280;62035;52.094;5.112;2022-08-06T05:03:32;102823.97;;;15.17;100.00
62031;BME280;62035;52.094;5.112;2022-08-06T05:06:09;102801.19;;;15.32;100.00
62031;BME280;62035;52.094;5.112;2022-08-06T05:08:43;102831.38;;;15.76;100.00
62031;BME280;62035;52.094;5.112;2022-08-06T05:11:18;102822.66;;;15.83;100.00
62031;BME280;62035;52.094;5.112;2022-08-06T05:13:54;102819.00;;;16.53;100.00
62031;BME280;62035;52.094;5.112;2022-08-06T05:16:32;102812.81;;;17.57;100.00
62031;BME280;62035;52.094;5.112;2022-08-06T05:19:08;102816.19;;;18.42;100.00
62031;BME280;62035;52.094;5.112;2022-08-06T05:21:45;102816.25;;;19.21;100.00
62031;BME280;62035;52.094;5.112;2022-08-06T05:24:14;102808.75;;;20.01;100.00
62031;BME280;62035;52.094;5.112;2022-08-06T05:26:43;102806.22;;;20.57;100.00
62031;BME280;62035;52.094;5.112;2022-08-06T05:29:12;102809.63;;;21.08;100.00
62031;BME280;62035;52.094;5.112;2022-08-06T05:31:44;102810.75;;;21.54;100.00
62031;BME280;62035;52.094;5.112;2022-08-06T05:34:12;102812.38;;;21.72;100.00
62031;BME280;62035;52.094;5.112;2022-08-06T05:36:40;102818.28;;;21.75;100.00
62031;BME280;62035;52.094;5.112;2022-08-06T05:39:09;102819.78;;;20.90;100.00
62031;BME280;62035;52.094;5.112;2022-08-06T05:41:37;102810.72;;;20.24;100.00
62031;BME280;62035;52.094;5.112;2022-08-06T05:44:05;102825.69;;;19.43;100.00
62031;BME280;62035;52.094;5.112;2022-08-06T05:46:35;102820.00;;;19.02;100.00
62031;BME280;62035;52.094;5.112;2022-08-06T05:49:08;102833.81;;;18.63;100.00
62031;BME280;62035;52.094;5.112;2022-08-06T05:51:43;102835.06;;;18.24;100.00
62031;BME280;62035;52.094;5.112;2022-08-06T05:54:27;102834.81;;;17.90;100.00
62031;BME280;62035;52.094;5.112;2022-08-06T05:57:05;102836.00;;;18.05;100.00
62031;BME280;62035;52.094;5.112;2022-08-06T05:59:39;102834.50;;;18.83;100.00
62031;BME280;62035;52.094;5.112;2022-08-06T06:02:11;102825.78;;;19.85;100.00
62031;BME280;62035;52.094;5.112;2022-08-06T06:04:42;102826.88;;;21.07;100.00
62031;BME280;62035;52.094;5.112;2022-08-06T06:07:12;102833.22;;;21.63;100.00
62031;BME280;62035;52.094;5.112;2022-08-06T06:09:42;102846.34;;;21.99;100.00
62031;BME280;62035;52.094;5.112;2022-08-06T06:12:11;102818.19;;;22.08;100.00
62031;BME280;62035;52.094;5.112;2022-08-06T06:14:42;102835.84;;;22.35;100.00
62031;BME280;62035;52.094;5.112;2022-08-06T06:17:30;102832.75;;;22.07;100.00
62031;BME280;62035;52.094;5.112;2022-08-06T06:20:14;102842.88;;;22.21;100.00
62031;BME280;62035;52.094;5.112;2022-08-06T06:22:51;102845.81;;;22.65;100.00
62031;BME280;62035;52.094;5.112;2022-08-06T06:25:28;102854.44;;;22.69;100.00
62031;BME280;62035;52.094;5.112;2022-08-06T06:28:02;102851.09;;;22.89;98.96
62031;BME280;62035;52.094;5.112;2022-08-06T06:30:42;102848.53;;;22.65;99.99
62031;BME280;62035;52.094;5.112;2022-08-06T06:33:20;102850.72;;;22.92;99.63
62031;BME280;62035;52.094;5.112;2022-08-06T06:35:57;102858.69;;;22.94;96.91
62031;BME280;62035;52.094;5.112;2022-08-06T06:38:38;102858.00;;;22.69;99.16
62031;BME280;62035;52.094;5.112;2022-08-06T06:41:16;102854.09;;;22.72;98.51
62031;BME280;62035;52.094;5.112;2022-08-06T06:43:58;102854.66;;;22.59;98.45
62031;BME280;62035;52.094;5.112;2022-08-06T06:46:36;102853.84;;;22.27;100.00
62031;BME280;62035;52.094;5.112;2022-08-06T06:49:11;102854.22;;;22.24;99.66
62031;BME280;62035;52.094;5.112;2022-08-06T06:51:46;102860.22;;;22.04;100.00
62031;BME280;62035;52.094;5.112;2022-08-06T06:54:23;102852.84;;;21.73;100.00
62031;BME280;62035;52.094;5.112;2022-08-06T06:56:56;102861.66;;;21.75;100.00
62031;BME280;62035;52.094;5.112;2022-08-06T06:59:29;102856.84;;;21.22;100.00
62031;BME280;62035;52.094;5.112;2022-08-06T07:02:01;102858.34;;;21.00;100.00
62031;BME280;62035;52.094;5.112;2022-08-06T07:04:31;102863.59;;;20.77;100.00
62031;BME280;62035;52.094;5.112;2022-08-06T07:07:04;102854.69;;;20.35;100.00
62031;BME280;62035;52.094;5.112;2022-08-06T07:09:33;102863.28;;;20.30;100.00
62031;BME280;62035;52.094;5.112;2022-08-06T07:12:05;102855.91;;;19.98;100.00
62031;BME280;62035;52.094;5.112;2022-08-06T07:14:34;102864.78;;;20.24;100.00
62031;BME280;62035;52.094;5.112;2022-08-06T07:17:04;102864.44;;;20.19;100.00
62031;BME280;62035;52.094;5.112;2022-08-06T07:19:33;102871.75;;;19.93;100.00
62031;BME280;62035;52.094;5.112;2022-08-06T07:22:03;102876.69;;;20.06;100.00
62031;BME280;62035;52.094;5.112;2022-08-06T07:24:33;102872.81;;;20.08;100.00
62031;BME280;62035;52.094;5.112;2022-08-06T07:27:05;102880.13;;;20.16;100.00
62031;BME280;62035;52.094;5.112;2022-08-06T07:29:35;102877.75;;;20.13;100.00
62031;BME280;62035;52.094;5.112;2022-08-06T07:32:07;102876.50;;;20.41;100.00
62031;BME280;62035;52.094;5.112;2022-08-06T07:34:36;102884.97;;;20.46;100.00
62031;BME280;62035;52.094;5.112;2022-08-06T07:37:05;102889.97;;;20.25;100.00
62031;BME280;62035;52.094;5.112;2022-08-06T07:39:37;102884.22;;;20.28;100.00
62031;BME280;62035;52.094;5.112;2022-08-06T07:42:11;102873.19;;;20.55;100.00
62031;BME280;62035;52.094;5.112;2022-08-06T07:44:44;102867.38;;;20.42;100.00
62031;BME280;62035;52.094;5.112;2022-08-06T07:47:20;102876.34;;;20.43;100.00
62031;BME280;62035;52.094;5.112;2022-08-06T07:49:55;102877.19;;;20.43;100.00
62031;BME280;62035;52.094;5.112;2022-08-06T07:52:25;102879.56;;;20.38;100.00
62031;BME280;62035;52.094;5.112;2022-08-06T07:54:54;102883.88;;;20.65;100.00
62031;BME280;62035;52.094;5.112;2022-08-06T07:57:25;102888.28;;;20.74;100.00
62031;BME280;62035;52.094;5.112;2022-08-06T07:59:54;102881.69;;;20.93;100.00
62031;BME280;62035;52.094;5.112;2022-08-06T08:02:23;102881.03;;;21.07;100.00
62031;BME280;62035;52.094;5.112;2022-08-06T08:04:51;102890.84;;;21.08;100.00
62031;BME280;62035;52.094;5.112;2022-08-06T08:07:37;102885.75;;;20.89;100.00
62031;BME280;62035;52.094;5.112;2022-08-06T08:10:06;102892.63;;;20.59;100.00
62031;BME280;62035;52.094;5.112;2022-08-06T08:12:36;102890.66;;;20.77;100.00
62031;BME280;62035;52.094;5.112;2022-08-06T08:15:06;102886.75;;;20.80;100.00
62031;BME280;62035;52.094;5.112;2022-08-06T08:17:35;102890.28;;;20.80;100.00
62031;BME280;62035;52.094;5.112;2022-08-06T08:20:04;102893.56;;;21.16;100.00
62031;BME280;62035;52.094;5.112;2022-08-06T08:22:34;102900.66;;;21.17;97.16
62031;BME280;62035;52.094;5.112;2022-08-06T08:25:02;102899.66;;;21.26;99.73
62031;BME280;62035;52.094;5.112;2022-08-06T08:27:31;102894.06;;;21.36;100.00
62031;BME280;62035;52.094;5.112;2022-08-06T08:29:59;102897.81;;;21.43;100.00
62031;BME280;62035;52.094;5.112;2022-08-06T08:32:27;102901.69;;;21.49;100.00
62031;BME280;62035;52.094;5.112;2022-08-06T08:34:55;102903.66;;;21.79;97.53
62031;BME280;62035;52.094;5.112;2022-08-06T08:37:22;102900.75;;;21.97;95.89
62031;BME280;62035;52.094;5.112;2022-08-06T08:39:50;102904.50;;;21.88;95.35
62031;BME280;62035;52.094;5.112;2022-08-06T08:42:21;102904.78;;;22.01;96.14
62031;BME280;62035;52.094;5.112;2022-08-06T08:44:54;102911.09;;;21.93;95.05
62031;BME280;62035;52.094;5.112;2022-08-06T08:47:25;102902.56;;;22.13;93.80
62031;BME280;62035;52.094;5.112;2022-08-06T08:49:57;102909.59;;;22.38;93.48
62031;BME280;62035;52.094;5.112;2022-08-06T08:52:32;102900.31;;;22.24;92.47
62031;BME280;62035;52.094;5.112;2022-08-06T08:55:02;102901.84;;;22.58;88.41
62031;BME280;62035;52.094;5.112;2022-08-06T08:57:32;102905.84;;;22.39;87.05
62031;BME280;62035;52.094;5.112;2022-08-06T09:00:01;102905.91;;;22.23;89.77
62031;BME280;62035;52.094;5.112;2022-08-06T09:02:32;102903.25;;;22.07;90.23
62031;BME280;62035;52.094;5.112;2022-08-06T09:05:00;102906.19;;;21.89;88.61
62031;BME280;62035;52.094;5.112;2022-08-06T09:07:28;102901.16;;;21.61;90.17
62031;BME280;62035;52.094;5.112;2022-08-06T09:09:58;102912.97;;;21.77;90.94
62031;BME280;62035;52.094;5.112;2022-08-06T09:12:26;102909.53;;;21.99;88.87
62031;BME280;62035;52.094;5.112;2022-08-06T09:14:54;102907.00;;;22.06;90.00
62031;BME280;62035;52.094;5.112;2022-08-06T09:17:21;102910.53;;;22.06;91.89
62031;BME280;62035;52.094;5.112;2022-08-06T09:19:52;102911.72;;;22.12;91.95
62031;BME280;62035;52.094;5.112;2022-08-06T09:22:20;102914.03;;;22.31;87.68
62031;BME280;62035;52.094;5.112;2022-08-06T09:24:47;102917.06;;;22.36;89.09
62031;BME280;62035;52.094;5.112;2022-08-06T09:27:17;102922.91;;;22.01;92.49
62031;BME280;62035;52.094;5.112;2022-08-06T09:29:49;102918.66;;;22.14;89.15
62031;BME280;62035;52.094;5.112;2022-08-06T09:32:36;102922.16;;;22.31;87.00
62031;BME280;62035;52.094;5.112;2022-08-06T09:35:17;102922.44;;;21.89;88.40
62031;BME280;62035;52.094;5.112;2022-08-06T09:37:45;102915.19;;;21.65;82.80
62031;BME280;62035;52.094;5.112;2022-08-06T09:40:15;102918.63;;;21.59;84.36
62031;BME280;62035;52.094;5.112;2022-08-06T09:42:45;102916.38;;;21.62;88.19
62031;BME280;62035;52.094;5.112;2022-08-06T09:45:17;102916.50;;;22.02;85.45
62031;BME280;62035;52.094;5.112;2022-08-06T09:47:47;102909.78;;;22.59;79.77
62031;BME280;62035;52.094;5.112;2022-08-06T09:50:35;102911.25;;;22.70;76.87
62031;BME280;62035;52.094;5.112;2022-08-06T09:53:07;102903.69;;;22.57;76.41
62031;BME280;62035;52.094;5.112;2022-08-06T09:55:35;102904.34;;;22.90;76.43
62031;BME280;62035;52.094;5.112;2022-08-06T09:58:03;102904.78;;;22.79;73.45
62031;BME280;62035;52.094;5.112;2022-08-06T10:00:33;102910.31;;;22.86;72.49
62031;BME280;62035;52.094;5.112;2022-08-06T10:03:04;102900.31;;;23.09;71.97
62031;BME280;62035;52.094;5.112;2022-08-06T10:05:35;102911.84;;;23.11;72.34
62031;BME280;62035;52.094;5.112;2022-08-06T10:08:05;102906.34;;;22.97;69.20
62031;BME280;62035;52.094;5.112;2022-08-06T10:10:39;102900.94;;;22.97;69.09
62031;BME280;62035;52.094;5.112;2022-08-06T10:13:14;102908.97;;;23.27;66.54
62031;BME280;62035;52.094;5.112;2022-08-06T10:15:44;102905.06;;;23.68;63.33
62031;BME280;62035;52.094;5.112;2022-08-06T10:18:33;102912.38;;;23.29;64.60
62031;BME280;62035;52.094;5.112;2022-08-06T10:21:08;102907.78;;;23.53;67.79
62031;BME280;62035;52.094;5.112;2022-08-06T10:23:39;102905.34;;;24.02;63.52
62031;BME280;62035;52.094;5.112;2022-08-06T10:26:09;102899.09;;;23.87;63.25
62031;BME280;62035;52.094;5.112;2022-08-06T10:28:39;102907.78;;;24.41;56.92
62031;BME280;62035;52.094;5.112;2022-08-06T10:31:10;102897.59;;;24.65;56.12
62031;BME280;62035;52.094;5.112;2022-08-06T10:33:40;102910.00;;;24.52;56.22
62031;BME280;62035;52.094;5.112;2022-08-06T10:36:18;102901.25;;;24.57;56.47
62031;BME280;62035;52.094;5.112;2022-08-06T10:38:50;102904.34;;;24.69;55.89
62031;BME280;62035;52.094;5.112;2022-08-06T10:41:21;102905.03;;;24.56;55.00
62031;BME280;62035;52.094;5.112;2022-08-06T10:43:53;102890.84;;;24.60;56.22
62031;BME280;62035;52.094;5.112;2022-08-06T10:46:21;102900.47;;;24.78;55.40
62031;BME280;62035;52.094;5.112;2022-08-06T10:48:50;102895.63;;;24.80;53.74
62031;BME280;62035;52.094;5.112;2022-08-06T10:51:21;102900.72;;;24.47;55.22
62031;BME280;62035;52.094;5.112;2022-08-06T10:53:49;102893.44;;;24.69;55.40
62031;BME280;62035;52.094;5.112;2022-08-06T10:56:18;102896.34;;;25.03;55.98
62031;BME280;62035;52.094;5.112;2022-08-06T10:58:46;102900.03;;;24.59;55.88
62031;BME280;62035;52.094;5.112;2022-08-06T11:01:21;102899.38;;;24.57;56.22
62031;BME280;62035;52.094;5.112;2022-08-06T11:04:12;102889.06;;;25.10;55.63
62031;BME280;62035;52.094;5.112;2022-08-06T11:07:11;102880.75;;;24.97;56.75
62031;BME280;62035;52.094;5.112;2022-08-06T11:10:17;102896.72;;;25.00;54.70
62031;BME280;62035;52.094;5.112;2022-08-06T11:13:05;102891.56;;;25.33;55.14
62031;BME280;62035;52.094;5.112;2022-08-06T11:15:46;102883.69;;;24.96;55.88
62031;BME280;62035;52.094;5.112;2022-08-06T11:18:17;102881.78;;;25.17;57.24
62031;BME280;62035;52.094;5.112;2022-08-06T11:20:46;102887.34;;;25.31;56.61
62031;BME280;62035;52.094;5.112;2022-08-06T11:23:25;102885.53;;;24.74;57.67
62031;BME280;62035;52.094;5.112;2022-08-06T11:25:55;102891.69;;;24.25;60.60
62031;BME280;62035;52.094;5.112;2022-08-06T11:31:38;102878.28;;;24.45;60.70
62031;BME280;62035;52.094;5.112;2022-08-06T11:34:09;102881.19;;;24.43;61.39
62031;BME280;62035;52.094;5.112;2022-08-06T11:36:48;102893.91;;;24.36;62.02
62031;BME280;62035;52.094;5.112;2022-08-06T11:39:21;102877.47;;;24.87;60.40
62031;BME280;62035;52.094;5.112;2022-08-06T11:41:53;102868.06;;;25.32;58.76
62031;BME280;62035;52.094;5.112;2022-08-06T11:44:27;102876.97;;;25.19;56.31
62031;BME280;62035;52.094;5.112;2022-08-06T11:47:13;102881.91;;;24.67;57.31
62031;BME280;62035;52.094;5.112;2022-08-06T11:49:46;102876.88;;;24.49;59.40
62031;BME280;62035;52.094;5.112;2022-08-06T11:52:41;102872.13;;;24.07;63.78
62031;BME280;62035;52.094;5.112;2022-08-06T11:55:12;102875.84;;;23.99;65.52
62031;BME280;62035;52.094;5.112;2022-08-06T11:57:41;102882.50;;;23.82;62.59
62031;BME280;62035;52.094;5.112;2022-08-06T12:00:12;102877.53;;;23.85;63.11
62031;BME280;62035;52.094;5.112;2022-08-06T12:08:24;102872.19;;;24.79;59.27
62031;BME280;62035;52.094;5.112;2022-08-06T12:11:23;102872.88;;;25.30;57.17
62031;BME280;62035;52.094;5.112;2022-08-06T12:13:59;102872.81;;;25.79;56.04
62031;BME280;62035;52.094;5.112;2022-08-06T12:16:35;102863.25;;;25.06;58.50
62031;BME280;62035;52.094;5.112;2022-08-06T12:19:10;102868.94;;;26.02;55.63
62031;BME280;62035;52.094;5.112;2022-08-06T12:21:41;102858.75;;;25.48;55.01
62031;BME280;62035;52.094;5.112;2022-08-06T12:24:10;102862.91;;;25.16;57.30
62031;BME280;62035;52.094;5.112;2022-08-06T12:26:39;102863.84;;;25.30;55.02
62031;BME280;62035;52.094;5.112;2022-08-06T12:29:07;102861.50;;;24.41;55.33
62031;BME280;62035;52.094;5.112;2022-08-06T12:31:37;102868.03;;;23.81;57.94
62031;BME280;62035;52.094;5.112;2022-08-06T12:34:06;102856.69;;;23.78;59.10
62031;BME280;62035;52.094;5.112;2022-08-06T12:36:35;102855.94;;;24.49;57.46
62031;BME280;62035;52.094;5.112;2022-08-06T12:39:07;102859.94;;;26.08;51.62
62031;BME280;62035;52.094;5.112;2022-08-06T12:41:39;102859.78;;;26.77;48.52
62031;BME280;62035;52.094;5.112;2022-08-06T12:44:09;102855.56;;;27.60;46.13
62031;BME280;62035;52.094;5.112;2022-08-06T12:46:38;102853.38;;;27.95;45.66
62031;BME280;62035;52.094;5.112;2022-08-06T12:49:06;102854.53;;;27.21;46.79
62031;BME280;62035;52.094;5.112;2022-08-06T12:51:35;102851.91;;;26.47;48.45
62031;BME280;62035;52.094;5.112;2022-08-06T12:54:05;102845.25;;;26.83;47.95
62031;BME280;62035;52.094;5.112;2022-08-06T12:56:39;102832.97;;;27.84;45.15
62031;BME280;62035;52.094;5.112;2022-08-06T12:59:11;102833.66;;;27.73;45.09
62031;BME280;62035;52.094;5.112;2022-08-06T13:01:43;102841.50;;;26.97;47.02
62031;BME280;62035;52.094;5.112;2022-08-06T13:04:13;102834.06;;;27.70;45.67
62031;BME280;62035;52.094;5.112;2022-08-06T13:06:42;102843.41;;;27.03;46.58
62031;BME280;62035;52.094;5.112;2022-08-06T13:09:10;102837.75;;;26.24;48.13
62031;BME280;62035;52.094;5.112;2022-08-06T13:11:38;102841.44;;;25.34;49.12
62031;BME280;62035;52.094;5.112;2022-08-06T13:14:12;102846.66;;;25.91;47.97
62031;BME280;62035;52.094;5.112;2022-08-06T13:16:42;102842.69;;;26.01;47.81